Time;durP1;ratioP1;P1;durP2;ratioP2;P2;SDS_P1;SDS_P2;PMS_P1;PMS_P2;Temp;Humidity;BMP_temperature;BMP_pressure;BME280_temperature;BME280_humidity;BME280_pressure;Samples;Min_cycle;Max_cycle;Signal;HPM_P1;HPM_P2
2022/06/07 00:02:06;;;;;;;12.02;8.48;;;12.10;89.50;;;;;;5058219;28;20036;-41
2022/06/07 00:04:33;;;;;;;11.55;8.27;;;12.10;89.50;;;;;;5069181;28;20012;-42
2022/06/07 00:07:01;;;;;;;9.93;8.45;;;12.10;89.60;;;;;;5035261;28;20033;-43
2022/06/07 00:09:30;;;;;;;13.88;8.15;;;12.10;89.60;;;;;;5049376;28;20082;-42
2022/06/07 00:12:00;;;;;;;12.82;7.45;;;12.10;89.60;;;;;;5063821;28;20110;-42
2022/06/07 00:14:28;;;;;;;11.40;6.90;;;12.10;89.70;;;;;;5068715;28;20057;-41
2022/06/07 00:16:57;;;;;;;10.50;7.55;;;12.00;89.50;;;;;;5057198;28;20342;-42
2022/06/07 00:19:24;;;;;;;11.00;8.05;;;12.00;89.70;;;;;;5048718;28;20079;-41
2022/06/07 00:21:53;;;;;;;10.35;7.82;;;12.10;89.50;;;;;;5041741;28;20123;-43
2022/06/07 00:24:20;;;;;;;14.57;8.48;;;12.10;89.60;;;;;;5068933;28;20056;-42
2022/06/07 00:26:49;;;;;;;14.48;8.90;;;12.10;89.60;;;;;;5048194;28;20810;-40
2022/06/07 00:29:16;;;;;;;13.70;7.75;;;12.10;89.60;;;;;;5047924;28;20388;-45
2022/06/07 00:31:43;;;;;;;12.25;7.68;;;12.10;89.70;;;;;;5064929;28;20048;-43
2022/06/07 00:34:11;;;;;;;13.07;7.65;;;12.10;89.70;;;;;;5053382;28;20388;-41
2022/06/07 00:36:38;;;;;;;12.60;7.63;;;12.10;89.60;;;;;;5033551;28;20057;-42
2022/06/07 00:39:07;;;;;;;9.68;7.13;;;12.10;89.60;;;;;;5036714;28;20102;-42
2022/06/07 00:41:34;;;;;;;13.55;7.43;;;12.10;89.60;;;;;;5041926;28;20083;-41
2022/06/07 00:44:31;;;;;;;11.98;7.72;;;12.10;89.70;;;;;;5036104;28;20021;-41
2022/06/07 00:47:05;;;;;;;16.05;8.70;;;12.10;89.60;;;;;;5032947;28;20065;-42
2022/06/07 00:49:38;;;;;;;11.65;7.88;;;12.10;89.40;;;;;;5034917;28;20029;-43
2022/06/07 00:52:06;;;;;;;12.13;7.18;;;12.10;89.20;;;;;;5048036;28;20037;-40
2022/06/07 00:54:34;;;;;;;10.40;7.85;;;12.10;89.00;;;;;;5052392;28;20028;-40
2022/06/07 00:57:01;;;;;;;13.43;6.80;;;12.10;88.90;;;;;;5046978;28;20549;-40
2022/06/07 00:59:31;;;;;;;9.95;7.03;;;12.20;88.80;;;;;;5032678;28;20438;-41
2022/06/07 01:01:58;;;;;;;10.50;7.50;;;12.20;88.90;;;;;;5025549;28;20087;-40
2022/06/07 01:04:27;;;;;;;13.48;7.82;;;12.20;89.10;;;;;;5052238;28;20456;-40
2022/06/07 01:12:25;;;;;;;16.17;8.73;;;12.20;89.10;;;;;;5039767;28;20064;-39
2022/06/07 01:14:56;;;;;;;10.73;7.47;;;12.10;89.10;;;;;;5009702;28;20032;-40
2022/06/07 01:17:22;;;;;;;13.93;7.50;;;12.10;89.10;;;;;;5039826;28;20041;-43
2022/06/07 01:19:49;;;;;;;10.18;7.80;;;12.20;89.00;;;;;;5012013;28;20113;-43
2022/06/07 01:22:17;;;;;;;9.90;7.70;;;12.20;89.00;;;;;;5034139;28;20030;-41
2022/06/07 01:24:43;;;;;;;14.27;8.18;;;12.20;89.00;;;;;;5044762;28;20028;-44
2022/06/07 01:27:10;;;;;;;9.82;7.03;;;12.20;88.90;;;;;;5013747;28;20056;-40
2022/06/07 01:29:37;;;;;;;11.82;7.07;;;12.20;89.00;;;;;;5028969;28;20366;-41
2022/06/07 01:32:04;;;;;;;12.65;7.68;;;12.20;89.00;;;;;;5046445;28;20464;-40
2022/06/07 01:34:32;;;;;;;9.75;7.22;;;12.20;88.90;;;;;;5031489;28;20115;-40
2022/06/07 01:37:00;;;;;;;10.55;6.90;;;12.20;89.00;;;;;;5032449;28;20067;-42
2022/06/07 01:42:14;;;;;;;8.60;7.20;;;12.20;89.10;;;;;;5053539;28;20028;-41
2022/06/07 01:44:44;;;;;;;10.48;7.57;;;12.20;89.10;;;;;;5033293;28;20032;-40
2022/06/07 01:47:15;;;;;;;11.40;8.25;;;12.30;89.10;;;;;;5054412;28;20056;-39
2022/06/07 01:49:43;;;;;;;10.77;6.70;;;12.30;89.00;;;;;;5063444;28;20094;-40
2022/06/07 01:52:11;;;;;;;11.27;7.78;;;12.20;88.80;;;;;;5031842;28;20040;-41
2022/06/07 01:54:38;;;;;;;10.15;7.60;;;12.30;88.90;;;;;;5050766;28;20492;-39
2022/06/07 01:57:05;;;;;;;13.20;9.18;;;12.30;89.00;;;;;;5050463;28;20143;-42
2022/06/07 01:59:32;;;;;;;10.25;8.13;;;12.30;88.90;;;;;;5049868;28;20126;-42
2022/06/07 02:02:00;;;;;;;11.52;8.07;;;12.30;88.90;;;;;;5051949;28;20024;-40
2022/06/07 02:04:27;;;;;;;9.45;7.25;;;12.30;88.90;;;;;;5050272;28;20419;-40
2022/06/07 02:06:54;;;;;;;9.80;8.38;;;12.30;88.90;;;;;;5031656;28;20040;-41
2022/06/07 02:09:22;;;;;;;13.32;8.02;;;12.30;88.80;;;;;;5043035;28;20108;-40
2022/06/07 02:11:48;;;;;;;18.15;9.20;;;12.30;89.00;;;;;;5031622;28;20382;-39
2022/06/07 02:14:14;;;;;;;9.93;7.85;;;12.30;88.90;;;;;;5048970;28;20104;-39
2022/06/07 02:16:41;;;;;;;14.88;8.50;;;12.30;88.90;;;;;;5035130;28;20032;-42
2022/06/07 02:19:07;;;;;;;12.15;8.68;;;12.40;88.90;;;;;;5045914;28;20064;-39
2022/06/07 02:21:37;;;;;;;12.40;7.75;;;12.40;88.90;;;;;;5050852;28;20390;-40
2022/06/07 02:24:04;;;;;;;;;;;12.40;88.80;;;;;;5049855;28;20025;-40
2022/06/07 02:26:39;;;;;;;16.67;10.45;;;12.40;88.80;;;;;;5048383;28;19916;-39
2022/06/07 02:29:33;;;;;;;13.68;9.63;;;12.40;88.50;;;;;;5031622;28;20087;-41
2022/06/07 02:32:07;;;;;;;12.00;9.95;;;12.40;88.50;;;;;;5035114;28;20033;-39
2022/06/07 02:34:37;;;;;;;14.18;8.95;;;12.40;88.70;;;;;;5049612;28;20112;-42
2022/06/07 02:37:06;;;;;;;17.55;9.95;;;12.40;88.80;;;;;;5044136;28;20049;-41
2022/06/07 02:39:36;;;;;;;16.10;11.20;;;12.40;88.70;;;;;;5031485;28;20029;-39
2022/06/07 02:42:05;;;;;;;15.52;11.10;;;12.40;88.70;;;;;;5038283;28;20349;-40
2022/06/07 02:44:33;;;;;;;13.50;9.82;;;12.40;88.80;;;;;;5049424;28;20025;-43
2022/06/07 02:47:01;;;;;;;14.68;11.73;;;12.40;88.90;;;;;;5060672;28;20028;-41
2022/06/07 02:49:28;;;;;;;12.00;10.68;;;12.40;88.80;;;;;;5055485;28;20039;-39
2022/06/07 02:51:55;;;;;;;14.68;12.05;;;12.40;88.70;;;;;;5053140;28;20485;-40
2022/06/07 02:54:21;;;;;;;12.75;10.95;;;12.40;88.70;;;;;;5034608;28;20116;-39
2022/06/07 02:56:49;;;;;;;17.95;11.18;;;12.40;88.70;;;;;;5048391;28;20028;-40
2022/06/07 02:59:15;;;;;;;15.48;12.20;;;12.40;88.60;;;;;;5049783;28;20346;-40
2022/06/07 03:01:45;;;;;;;15.57;12.13;;;12.50;88.60;;;;;;5046528;28;20376;-40
2022/06/07 03:04:12;;;;;;;15.65;12.13;;;12.50;88.60;;;;;;5059122;28;20021;-40
2022/06/07 03:06:39;;;;;;;12.80;10.80;;;12.50;88.70;;;;;;5031782;28;20394;-39
2022/06/07 03:09:05;;;;;;;13.73;12.13;;;12.50;88.70;;;;;;5054394;28;20490;-40
2022/06/07 03:11:32;;;;;;;15.65;12.95;;;12.50;88.70;;;;;;5067882;28;20037;-41
2022/06/07 03:13:59;;;;;;;13.60;12.10;;;12.50;88.80;;;;;;5040413;28;20080;-40
2022/06/07 03:16:26;;;;;;;13.50;12.20;;;12.50;88.80;;;;;;5049483;28;20115;-41
2022/06/07 03:18:54;;;;;;;13.25;11.38;;;12.50;88.80;;;;;;5051921;28;20024;-41
2022/06/07 03:21:23;;;;;;;14.65;11.77;;;12.50;88.70;;;;;;5067916;28;20021;-42
2022/06/07 03:23:50;;;;;;;13.07;11.70;;;12.50;88.60;;;;;;5049547;28;20028;-42
2022/06/07 03:26:17;;;;;;;12.13;10.82;;;12.60;88.70;;;;;;5049443;28;20029;-40
2022/06/07 03:28:44;;;;;;;14.32;11.30;;;12.60;88.60;;;;;;5050959;28;20044;-41
2022/06/07 03:31:14;;;;;;;13.13;10.75;;;12.60;88.60;;;;;;5069206;28;20456;-40
2022/06/07 03:33:46;;;;;;;12.60;11.30;;;12.60;88.60;;;;;;5066902;28;20452;-40
2022/06/07 03:36:23;;;;;;;12.45;11.15;;;12.70;88.60;;;;;;5041061;28;20380;-41
2022/06/07 03:38:50;;;;;;;13.30;12.10;;;12.70;88.60;;;;;;5044918;28;20091;-41
2022/06/07 03:41:20;;;;;;;13.77;11.50;;;12.70;88.60;;;;;;5064931;28;20079;-40
2022/06/07 03:43:47;;;;;;;13.38;11.98;;;12.70;88.70;;;;;;5058976;28;20120;-40
2022/06/07 03:46:19;;;;;;;13.23;11.98;;;12.70;88.80;;;;;;5031681;28;20057;-42
2022/06/07 03:48:46;;;;;;;12.70;10.43;;;12.70;88.70;;;;;;5049168;28;20025;-41
2022/06/07 03:51:13;;;;;;;13.52;11.43;;;12.70;88.70;;;;;;5048085;28;20440;-41
2022/06/07 03:53:41;;;;;;;10.93;9.45;;;12.70;88.50;;;;;;5027839;28;20108;-40
2022/06/07 03:56:09;;;;;;;11.43;9.30;;;12.70;88.20;;;;;;5048673;28;20421;-42
2022/06/07 03:58:40;;;;;;;11.38;10.27;;;12.70;87.80;;;;;;5036965;28;20102;-40
2022/06/07 04:01:15;;;;;;;9.43;8.43;;;12.80;87.50;;;;;;5065195;28;20048;-41
2022/06/07 04:03:47;;;;;;;10.00;9.00;;;12.80;87.10;;;;;;5048002;28;20449;-40
2022/06/07 04:06:29;;;;;;;11.35;9.90;;;12.80;86.90;;;;;;5049162;28;20103;-41
2022/06/07 04:08:56;;;;;;;11.10;9.65;;;12.80;87.10;;;;;;5048359;28;20047;-41
2022/06/07 04:11:25;;;;;;;11.98;10.50;;;12.90;87.40;;;;;;5061440;28;20047;-40
2022/06/07 04:13:54;;;;;;;11.32;10.23;;;12.90;87.50;;;;;;5051274;28;20033;-41
2022/06/07 04:16:24;;;;;;;11.48;10.25;;;12.90;87.60;;;;;;5063249;28;20043;-40
2022/06/07 04:18:53;;;;;;;11.13;9.95;;;12.90;87.60;;;;;;5019138;28;20029;-41
2022/06/07 04:21:20;;;;;;;14.53;10.70;;;12.90;87.60;;;;;;5035510;28;20039;-45
2022/06/07 04:23:47;;;;;;;11.57;10.05;;;12.90;87.50;;;;;;5071001;28;20119;-42
2022/06/07 04:26:18;;;;;;;12.63;10.80;;;12.90;87.60;;;;;;5038143;28;20107;-42
2022/06/07 04:28:44;;;;;;;15.27;11.30;;;12.90;87.40;;;;;;5057280;28;20333;-41
2022/06/07 04:31:19;;;;;;;12.43;11.13;;;12.90;87.50;;;;;;5037793;28;20116;-43
2022/06/07 04:33:48;;;;;;;16.42;12.23;;;12.90;87.30;;;;;;5041255;28;20029;-40
2022/06/07 04:36:21;;;;;;;10.68;9.57;;;12.90;87.40;;;;;;5057464;28;20066;-41
2022/06/07 04:38:49;;;;;;;13.40;10.85;;;12.90;87.50;;;;;;5060521;28;20029;-41
2022/06/07 04:41:18;;;;;;;14.82;11.50;;;13.00;87.50;;;;;;5055516;28;20045;-41
2022/06/07 04:43:46;;;;;;;12.15;10.82;;;13.00;87.60;;;;;;5031310;28;20375;-42
2022/06/07 04:46:14;;;;;;;12.50;11.00;;;13.00;87.40;;;;;;5052332;28;20047;-40
2022/06/07 04:48:43;;;;;;;19.38;12.40;;;13.00;87.60;;;;;;5069534;28;20029;-41
2022/06/07 04:51:13;;;;;;;13.52;12.13;;;13.00;87.50;;;;;;5055235;28;20093;-41
2022/06/07 04:53:40;;;;;;;15.93;12.45;;;13.00;87.30;;;;;;5064429;28;20024;-41
2022/06/07 04:56:26;;;;;;;15.93;12.77;;;13.00;87.50;;;;;;5043024;28;20036;-41
2022/06/07 04:58:53;;;;;;;14.07;11.38;;;13.00;87.60;;;;;;5062350;28;20104;-40
2022/06/07 05:01:42;;;;;;;13.30;11.65;;;13.00;87.70;;;;;;5057506;28;20471;-41
2022/06/07 05:04:12;;;;;;;15.25;12.15;;;13.00;87.70;;;;;;5054441;28;20090;-40
2022/06/07 05:06:42;;;;;;;11.70;10.50;;;13.00;87.40;;;;;;5055125;28;20072;-40
2022/06/07 05:09:11;;;;;;;13.52;11.65;;;12.90;87.20;;;;;;5054950;28;20031;-44
2022/06/07 05:11:38;;;;;;;14.30;12.47;;;13.00;87.30;;;;;;5052811;28;20038;-40
2022/06/07 05:14:06;;;;;;;14.40;11.48;;;12.90;87.30;;;;;;5055399;28;20028;-42
2022/06/07 05:16:37;;;;;;;13.82;11.60;;;12.90;87.60;;;;;;5054661;28;20409;-44
2022/06/07 05:19:04;;;;;;;16.33;12.68;;;12.90;87.50;;;;;;5054696;28;20115;-41
2022/06/07 05:21:31;;;;;;;14.23;12.45;;;12.90;87.40;;;;;;5058924;28;20439;-42
2022/06/07 05:23:58;;;;;;;15.95;14.02;;;12.90;87.60;;;;;;5054518;28;20364;-44
2022/06/07 05:26:45;;;;;;;15.55;12.73;;;12.90;87.70;;;;;;5055208;28;20562;-40
2022/06/07 05:29:44;;;;;;;15.13;12.85;;;12.90;87.80;;;;;;5051082;28;20446;-41
2022/06/07 05:32:11;;;;;;;14.20;12.68;;;12.80;88.00;;;;;;5055756;28;20076;-41
2022/06/07 05:34:38;;;;;;;14.93;13.35;;;12.90;88.10;;;;;;5050787;28;20032;-40
2022/06/07 05:37:05;;;;;;;15.18;12.93;;;12.90;88.00;;;;;;5053848;28;20048;-41
2022/06/07 05:39:35;;;;;;;16.58;13.75;;;12.90;87.90;;;;;;5052323;28;20033;-40
2022/06/07 05:42:02;;;;;;;16.38;12.90;;;12.90;87.70;;;;;;5049838;28;20033;-45
2022/06/07 05:44:33;;;;;;;16.48;13.15;;;13.00;87.70;;;;;;5049946;28;20044;-40
2022/06/07 05:47:00;;;;;;;15.55;13.98;;;13.00;88.00;;;;;;5032530;28;20094;-40
2022/06/07 05:49:27;;;;;;;15.98;12.77;;;13.00;87.80;;;;;;5051016;28;20094;-40
2022/06/07 05:51:54;;;;;;;15.73;13.10;;;13.00;88.00;;;;;;5051123;28;20029;-42
2022/06/07 05:54:21;;;;;;;13.95;12.52;;;13.10;87.90;;;;;;5065411;28;20041;-39
2022/06/07 05:56:48;;;;;;;15.85;13.55;;;13.00;87.80;;;;;;5032421;28;20029;-42
2022/06/07 05:59:15;;;;;;;15.68;14.05;;;13.10;87.90;;;;;;5050581;28;20024;-40
2022/06/07 06:01:44;;;;;;;14.70;13.20;;;13.00;88.10;;;;;;5049223;28;20491;-40
2022/06/07 06:04:13;;;;;;;16.60;14.90;;;12.90;88.30;;;;;;5033244;28;20061;-39
2022/06/07 06:06:43;;;;;;;16.02;14.20;;;12.90;88.50;;;;;;5048451;28;20465;-42
2022/06/07 06:11:55;;;;;;;18.15;12.80;;;12.90;88.80;;;;;;5048519;28;20097;-40
2022/06/07 06:14:23;;;;;;;13.10;11.40;;;12.90;88.80;;;;;;5050768;28;20455;-39
2022/06/07 06:16:52;;;;;;;13.45;10.98;;;12.90;88.60;;;;;;5053567;28;20029;-43
2022/06/07 06:19:19;;;;;;;14.35;11.68;;;12.90;88.50;;;;;;5056221;28;20086;-47
2022/06/07 06:21:46;;;;;;;13.75;12.20;;;12.90;88.50;;;;;;5070593;28;20024;-45
2022/06/07 06:24:13;;;;;;;14.27;12.02;;;12.90;88.70;;;;;;5067354;28;20083;-46
2022/06/07 06:26:42;;;;;;;16.15;12.15;;;12.90;88.80;;;;;;5053003;28;20082;-45
2022/06/07 06:29:11;;;;;;;16.60;12.57;;;13.00;88.90;;;;;;5061591;28;20048;-46
2022/06/07 06:31:39;;;;;;;13.63;11.35;;;13.00;88.90;;;;;;5061781;28;20728;-43
2022/06/07 06:34:07;;;;;;;15.65;11.60;;;13.00;88.80;;;;;;5041928;28;20087;-42
2022/06/07 06:36:34;;;;;;;14.63;10.98;;;13.00;88.70;;;;;;5036052;28;20426;-43
2022/06/07 06:39:05;;;;;;;14.43;11.07;;;13.10;88.50;;;;;;5014161;28;20040;-45
2022/06/07 06:41:32;;;;;;;13.65;10.13;;;13.10;88.30;;;;;;5026457;28;20018;-44
2022/06/07 06:44:04;;;;;;;12.55;9.63;;;13.20;88.20;;;;;;5029981;28;20735;-44
2022/06/07 06:46:34;;;;;;;14.48;9.88;;;13.10;88.00;;;;;;5029799;28;20053;-42
2022/06/07 06:49:03;;;;;;;14.30;8.93;;;13.20;87.70;;;;;;5014046;28;20029;-40
2022/06/07 06:51:30;;;;;;;10.27;8.68;;;13.20;87.50;;;;;;5030352;28;20101;-41
2022/06/07 06:53:59;;;;;;;11.38;9.13;;;13.30;87.30;;;;;;5020394;28;20029;-40
2022/06/07 06:56:28;;;;;;;10.02;8.70;;;13.30;87.40;;;;;;4988540;28;20041;-44
2022/06/07 06:58:56;;;;;;;10.50;8.60;;;13.40;87.50;;;;;;5020980;28;20141;-40
2022/06/07 07:01:30;;;;;;;10.43;7.70;;;13.40;87.30;;;;;;5012506;28;20033;-42
2022/06/07 07:03:58;;;;;;;9.73;7.75;;;13.50;87.30;;;;;;5011204;28;20060;-41
2022/06/07 07:06:25;;;;;;;9.93;8.48;;;13.50;87.20;;;;;;5015239;28;20033;-41
2022/06/07 07:08:54;;;;;;;8.55;7.53;;;13.60;87.20;;;;;;5020904;28;20473;-40
2022/06/07 07:11:51;;;;;;;9.32;7.13;;;13.60;87.40;;;;;;5022381;28;20320;-41
2022/06/07 07:14:18;;;;;;;10.88;6.72;;;13.60;87.30;;;;;;5016160;28;20048;-42
2022/06/07 07:16:48;;;;;;;7.70;6.47;;;13.60;87.30;;;;;;5007810;28;20041;-40
2022/06/07 07:19:17;;;;;;;7.50;6.40;;;13.70;87.30;;;;;;4992687;28;20129;-40
2022/06/07 07:21:48;;;;;;;7.20;6.22;;;13.80;87.00;;;;;;5004968;28;20281;-40
2022/06/07 07:24:19;;;;;;;8.75;6.90;;;13.80;87.00;;;;;;5013929;28;20030;-40
2022/06/07 07:26:47;;;;;;;8.18;5.82;;;13.80;87.10;;;;;;5025324;28;20465;-42
2022/06/07 07:29:17;;;;;;;8.55;6.00;;;13.90;87.00;;;;;;5000517;28;20046;-40
2022/06/07 07:31:43;;;;;;;;;;;13.80;86.80;;;;;;5014580;28;20037;-40
2022/06/07 07:34:14;;;;;;;7.00;6.18;;;13.90;86.60;;;;;;5001941;28;19980;-40
2022/06/07 07:36:45;;;;;;;7.22;5.30;;;13.90;86.50;;;;;;5021902;28;20076;-42
2022/06/07 07:39:13;;;;;;;9.80;5.70;;;13.80;86.30;;;;;;5023513;28;20041;-40
2022/06/07 07:41:41;;;;;;;7.13;4.68;;;13.80;86.10;;;;;;5024673;28;20039;-41
2022/06/07 07:44:13;;;;;;;7.18;5.32;;;13.80;86.30;;;;;;5008332;28;20047;-41
2022/06/07 07:46:40;;;;;;;8.40;4.93;;;13.90;86.20;;;;;;5025083;28;20079;-40
2022/06/07 07:49:08;;;;;;;5.07;3.88;;;14.00;85.90;;;;;;5024224;28;20081;-42
2022/06/07 07:51:38;;;;;;;5.03;4.28;;;14.00;85.70;;;;;;5007585;28;20033;-40
2022/06/07 07:54:08;;;;;;;5.63;4.35;;;14.00;85.30;;;;;;5026667;28;20024;-43
2022/06/07 07:56:35;;;;;;;7.38;4.63;;;13.90;85.30;;;;;;5024378;28;20441;-40
2022/06/07 07:59:04;;;;;;;6.32;5.07;;;13.70;85.90;;;;;;5024277;28;20084;-40
2022/06/07 08:01:31;;;;;;;5.60;4.20;;;13.60;86.40;;;;;;5024281;28;20133;-40
2022/06/07 08:04:00;;;;;;;6.93;4.90;;;13.60;86.60;;;;;;5025112;28;20025;-52
2022/06/07 08:06:29;;;;;;;7.80;5.43;;;13.50;86.80;;;;;;5006583;28;20034;-50
2022/06/07 08:09:01;;;;;;;7.75;4.57;;;13.50;87.60;;;;;;5023845;28;20029;-47
2022/06/07 08:11:30;;;;;;;7.07;4.70;;;13.70;87.80;;;;;;5022489;28;20495;-47
2022/06/07 08:13:57;;;;;;;5.38;2.85;;;14.00;88.00;;;;;;5023221;28;20104;-47
2022/06/07 08:16:27;;;;;;;5.60;2.92;;;14.30;85.90;;;;;;5010280;28;20253;-46
2022/06/07 08:18:54;;;;;;;6.70;2.72;;;14.40;85.70;;;;;;5025698;28;20461;-44
2022/06/07 08:21:26;;;;;;;3.97;2.20;;;14.50;84.80;;;;;;5025999;28;20036;-42
2022/06/07 08:23:57;;;;;;;6.13;2.03;;;14.40;84.40;;;;;;5025026;28;20036;-47
2022/06/07 08:26:29;;;;;;;4.68;1.63;;;14.50;83.40;;;;;;5025111;28;20064;-44
2022/06/07 08:28:56;;;;;;;4.03;1.73;;;14.50;82.90;;;;;;5024053;28;20041;-42
2022/06/07 08:31:28;;;;;;;4.03;1.40;;;14.70;83.40;;;;;;5024691;28;20044;-41
2022/06/07 08:39:27;;;;;;;2.45;0.98;;;15.50;80.10;;;;;;5024764;28;20056;-40
2022/06/07 08:42:13;;;;;;;3.85;1.00;;;15.40;79.20;;;;;;5029020;28;20100;-40
2022/06/07 08:45:05;;;;;;;4.47;1.30;;;15.30;78.70;;;;;;5024882;28;20029;-41
2022/06/07 08:47:51;;;;;;;4.07;1.20;;;15.40;79.60;;;;;;5026725;28;20108;-43
2022/06/07 08:50:21;;;;;;;3.63;1.40;;;15.70;79.30;;;;;;5008471;28;20125;-40
2022/06/07 08:52:55;;;;;;;3.47;1.15;;;16.40;77.60;;;;;;5024165;28;20034;-41
2022/06/07 08:55:48;;;;;;;3.17;1.50;;;16.70;75.60;;;;;;5025295;28;20037;-42
2022/06/07 08:58:29;;;;;;;4.72;1.58;;;16.80;75.90;;;;;;5023740;28;20124;-40
2022/06/07 09:00:58;;;;;;;7.07;2.15;;;16.50;76.20;;;;;;5025479;28;20100;-42
2022/06/07 09:04:02;;;;;;;4.82;1.90;;;16.20;76.20;;;;;;4995105;28;20038;-46
2022/06/07 09:06:39;;;;;;;4.25;2.25;;;16.00;77.10;;;;;;5024314;28;20022;-42
2022/06/07 09:09:10;;;;;;;14.85;2.72;;;16.40;77.40;;;;;;5027085;28;20313;-45
2022/06/07 09:14:48;;;;;;;5.30;1.98;;;17.10;74.90;;;;;;5027878;28;20137;-41
2022/06/07 09:17:18;;;;;;;4.13;1.33;;;17.50;73.60;;;;;;5010932;28;20099;-43
2022/06/07 09:19:45;;;;;;;6.30;1.83;;;18.10;72.30;;;;;;5026800;28;20034;-41
2022/06/07 09:22:29;;;;;;;3.03;0.95;;;18.70;71.70;;;;;;5028205;28;20029;-42
2022/06/07 09:25:07;;;;;;;3.40;1.00;;;19.40;69.70;;;;;;5010178;28;20438;-43
2022/06/07 09:27:34;;;;;;;3.75;1.08;;;19.40;67.10;;;;;;5025768;28;20458;-42
2022/06/07 09:30:20;;;;;;;4.03;1.73;;;19.50;67.60;;;;;;5009997;28;20048;-44
2022/06/07 09:32:49;;;;;;;5.65;1.45;;;18.90;66.50;;;;;;5017873;28;20029;-42
2022/06/07 09:35:20;;;;;;;4.53;1.63;;;18.50;68.40;;;;;;5037731;28;20042;-43
2022/06/07 09:38:06;;;;;;;4.07;1.35;;;17.90;68.80;;;;;;5025656;28;20049;-44
2022/06/07 09:40:46;;;;;;;4.50;1.48;;;17.50;70.00;;;;;;5008977;28;20068;-45
2022/06/07 09:43:42;;;;;;;3.83;1.77;;;17.40;71.30;;;;;;5024542;28;20053;-44
2022/06/07 09:46:11;;;;;;;6.20;1.35;;;17.30;71.60;;;;;;5024618;28;20037;-43
2022/06/07 09:48:42;;;;;;;5.70;1.23;;;17.10;71.00;;;;;;5026397;28;20025;-45
2022/06/07 09:51:23;;;;;;;4.38;1.38;;;16.90;72.90;;;;;;5027986;28;20076;-45
2022/06/07 09:54:14;;;;;;;5.50;1.33;;;16.70;73.30;;;;;;5026202;28;20073;-42
2022/06/07 09:57:13;;;;;;;4.80;1.40;;;16.60;73.10;;;;;;5009053;28;20094;-42
2022/06/07 10:00:04;;;;;;;4.50;1.35;;;16.80;74.30;;;;;;5028205;28;20017;-43
2022/06/07 10:02:49;;;;;;;7.45;1.10;;;16.80;74.50;;;;;;5027652;28;20139;-41
2022/06/07 10:05:35;;;;;;;3.42;1.17;;;16.60;72.60;;;;;;5028277;28;20123;-43
2022/06/07 10:08:20;;;;;;;5.07;1.67;;;16.40;72.80;;;;;;5024115;28;20116;-42
2022/06/07 10:11:01;;;;;;;4.47;1.85;;;16.40;74.80;;;;;;5028130;28;20168;-43
2022/06/07 10:13:46;;;;;;;8.57;2.03;;;16.20;73.30;;;;;;5026107;28;20116;-46
2022/06/07 10:16:56;;;;;;;4.80;1.73;;;16.20;73.80;;;;;;5028386;28;20112;-42
2022/06/07 10:19:59;;;;;;;4.43;1.38;;;16.10;74.50;;;;;;5029258;28;20033;-42
2022/06/07 10:22:53;;;;;;;4.13;1.10;;;16.00;74.70;;;;;;5029766;28;20057;-43
2022/06/07 10:25:44;;;;;;;6.55;1.45;;;16.00;74.90;;;;;;5029546;28;20021;-45
2022/06/07 10:28:42;;;;;;;5.90;1.35;;;15.90;74.80;;;;;;5010388;28;20021;-43
2022/06/07 10:31:35;;;;;;;4.75;1.38;;;15.70;74.70;;;;;;4990302;28;20341;-45
2022/06/07 10:34:12;;;;;;;5.75;1.42;;;15.50;76.60;;;;;;4982812;28;20037;-46
2022/06/07 10:37:17;;;;;;;3.45;1.17;;;15.50;76.00;;;;;;5024207;28;20049;-43
2022/06/07 10:40:06;;;;;;;2.67;0.82;;;15.50;76.20;;;;;;5027029;28;20463;-42
2022/06/07 10:42:52;;;;;;;3.90;1.13;;;15.70;74.70;;;;;;5029029;28;20445;-43
2022/06/07 10:45:37;;;;;;;3.78;0.90;;;15.60;74.90;;;;;;5048750;28;20507;-47
2022/06/07 10:48:34;;;;;;;9.38;1.20;;;15.60;75.40;;;;;;5040108;28;20108;-41
2022/06/07 10:54:31;;;;;;;3.15;1.42;;;15.50;76.20;;;;;;5046047;28;20518;-47
2022/06/07 10:57:28;;;;;;;7.72;1.73;;;15.60;78.10;;;;;;5046876;28;20021;-41
2022/06/07 10:59:59;;;;;;;3.50;1.42;;;15.80;78.00;;;;;;5023630;28;20065;-43
2022/06/07 11:02:45;;;;;;;4.00;1.30;;;16.00;76.70;;;;;;5027320;28;20033;-42
2022/06/07 11:11:18;;;;;;;4.95;1.30;;;16.40;74.40;;;;;;5047314;28;20175;-42
2022/06/07 11:14:12;;;;;;;6.20;1.65;;;16.00;73.60;;;;;;5045160;28;20476;-42
2022/06/07 11:17:11;;;;;;;4.05;1.35;;;16.00;75.10;;;;;;5044105;28;20060;-43
2022/06/07 11:19:38;;;;;;;5.05;1.27;;;16.10;74.70;;;;;;5045074;28;20147;-42
2022/06/07 11:22:15;;;;;;;3.30;1.60;;;16.20;74.80;;;;;;5029931;28;20029;-43
2022/06/07 11:25:18;;;;;;;2.92;1.05;;;16.40;73.40;;;;;;5042979;28;20036;-43
2022/06/07 11:27:54;;;;;;;7.97;1.30;;;16.50;74.10;;;;;;5045028;28;20035;-43
2022/06/07 11:30:23;;;;;;;3.78;1.25;;;16.50;73.80;;;;;;5028876;28;20071;-45
2022/06/07 11:33:27;;;;;;;4.88;1.30;;;16.50;73.90;;;;;;5046145;28;20060;-42
2022/06/07 11:36:35;;;;;;;8.45;1.80;;;16.30;74.00;;;;;;5041380;28;20123;-43
2022/06/07 11:39:28;;;;;;;3.53;1.10;;;16.00;75.00;;;;;;5025207;28;20045;-42
2022/06/07 11:41:59;;;;;;;3.83;1.30;;;15.80;75.00;;;;;;5028164;28;20036;-42
2022/06/07 11:44:34;;;;;;;5.82;1.40;;;15.80;75.40;;;;;;5021087;28;20030;-42
2022/06/07 11:47:16;;;;;;;7.25;1.45;;;15.80;75.30;;;;;;5011212;28;20326;-43
2022/06/07 11:49:44;;;;;;;5.78;1.05;;;15.80;75.90;;;;;;5032164;28;20103;-42
2022/06/07 11:52:23;;;;;;;5.22;1.10;;;15.50;74.90;;;;;;5025531;28;20096;-47
2022/06/07 11:55:16;;;;;;;6.10;1.63;;;15.40;75.50;;;;;;5012117;28;20075;-43
2022/06/07 11:58:04;;;;;;;4.43;1.10;;;15.20;74.10;;;;;;5009480;28;20832;-43
2022/06/07 12:00:34;;;;;;;5.35;1.30;;;15.30;74.10;;;;;;5026532;28;20184;-44
2022/06/07 12:03:03;;;;;;;9.15;1.63;;;15.60;75.00;;;;;;5016362;28;20319;-45
2022/06/07 12:05:52;;;;;;;3.95;1.08;;;16.10;73.50;;;;;;5025830;28;20034;-43
2022/06/07 12:08:34;;;;;;;8.35;1.52;;;16.50;70.70;;;;;;4989270;28;20181;-41
2022/06/07 12:11:23;;;;;;;7.85;1.20;;;16.90;71.20;;;;;;5006865;28;20026;-42
2022/06/07 12:14:22;;;;;;;3.43;1.10;;;17.00;70.00;;;;;;5006152;28;20041;-43
2022/06/07 12:17:29;;;;;;;5.15;1.35;;;16.70;67.50;;;;;;5006728;28;20048;-47
2022/06/07 12:19:57;;;;;;;9.02;1.45;;;16.50;69.20;;;;;;4997102;28;20067;-42
2022/06/07 12:22:28;;;;;;;9.25;2.08;;;16.40;69.80;;;;;;4991447;28;20026;-43
2022/06/07 12:25:10;;;;;;;6.95;1.63;;;16.20;70.10;;;;;;4988669;28;20033;-43
2022/06/07 12:27:49;;;;;;;7.80;1.67;;;15.90;71.00;;;;;;5006771;28;20030;-44
2022/06/07 12:30:35;;;;;;;6.38;1.60;;;15.80;71.30;;;;;;4971259;28;20144;-42
2022/06/07 12:33:24;;;;;;;17.20;3.58;;;15.60;72.70;;;;;;5009664;28;20041;-42
2022/06/07 12:36:17;;;;;;;6.38;1.75;;;15.70;73.10;;;;;;4998143;28;20066;-45
2022/06/07 12:38:48;;;;;;;4.70;1.65;;;15.90;72.90;;;;;;5010195;28;20393;-44
2022/06/07 12:41:22;;;;;;;5.65;1.50;;;16.10;71.80;;;;;;5029421;28;20041;-42
2022/06/07 12:43:56;;;;;;;5.95;1.88;;;16.30;72.90;;;;;;5028296;28;20606;-43
2022/06/07 12:46:32;;;;;;;5.75;1.55;;;16.40;72.10;;;;;;5029478;28;20025;-42
2022/06/07 12:48:59;;;;;;;5.18;1.65;;;16.30;72.10;;;;;;5030879;28;20099;-42
2022/06/07 12:51:35;;;;;;;6.22;1.63;;;16.20;72.50;;;;;;5025275;28;20028;-42
2022/06/07 12:54:09;;;;;;;7.35;1.50;;;16.10;73.00;;;;;;5026863;28;20043;-44
2022/06/07 12:56:39;;;;;;;5.38;1.67;;;15.90;73.60;;;;;;5027110;28;20036;-43
2022/06/07 12:59:11;;;;;;;12.00;2.03;;;15.60;73.70;;;;;;5026868;28;20476;-42
2022/06/07 13:01:41;;;;;;;7.97;1.65;;;15.50;74.90;;;;;;5026802;28;20412;-43
2022/06/07 13:04:30;;;;;;;6.70;2.03;;;15.50;75.20;;;;;;5027606;28;20025;-43
2022/06/07 13:07:12;;;;;;;5.35;2.33;;;15.40;75.00;;;;;;5027637;28;20619;-45
2022/06/07 13:09:39;;;;;;;4.47;1.65;;;15.30;75.50;;;;;;5028839;28;20029;-47
2022/06/07 13:12:06;;;;;;;5.75;2.03;;;15.30;76.00;;;;;;5014141;28;20129;-45
2022/06/07 13:14:36;;;;;;;6.50;1.88;;;15.30;76.30;;;;;;5028961;28;20041;-47
2022/06/07 13:17:32;;;;;;;5.38;2.08;;;15.30;76.30;;;;;;5039274;28;20044;-42
2022/06/07 13:20:01;;;;;;;4.78;1.40;;;15.30;76.40;;;;;;5029655;28;20030;-42
2022/06/07 13:22:32;;;;;;;8.27;2.35;;;15.40;75.40;;;;;;5046860;28;20033;-41
2022/06/07 13:25:19;;;;;;;5.20;1.63;;;15.40;76.50;;;;;;5013587;28;20118;-45
2022/06/07 13:28:15;;;;;;;6.13;1.80;;;15.40;75.50;;;;;;5030447;28;20029;-42
2022/06/07 13:30:46;;;;;;;4.20;2.00;;;15.50;76.30;;;;;;5015130;28;20040;-45
2022/06/07 13:33:35;;;;;;;6.93;2.05;;;15.60;76.60;;;;;;5014291;28;20045;-46
2022/06/07 13:36:35;;;;;;;5.88;2.00;;;15.60;75.90;;;;;;5019884;28;20108;-46
2022/06/07 13:39:02;;;;;;;;;;;15.50;74.70;;;;;;5022202;28;20029;-47
2022/06/07 13:41:30;;;;;;;5.03;1.45;;;15.60;74.50;;;;;;5042017;28;19909;-43
2022/06/07 13:44:06;;;;;;;15.55;2.28;;;15.40;74.30;;;;;;5030338;28;20024;-42